sensor_id;sensor_type;location;lat;lon;timestamp;P1;durP1;ratioP1;P2;durP2;ratioP2
70825;SDS011;58446;41.490;22.098;2024-01-30T00:01:54;58.83;;;30.27;;
70825;SDS011;58446;41.490;22.098;2024-01-30T00:04:19;47.15;;;24.27;;
70825;SDS011;58446;41.490;22.098;2024-01-30T00:06:45;40.30;;;21.17;;
70825;SDS011;58446;41.490;22.098;2024-01-30T00:09:11;50.47;;;23.65;;
70825;SDS011;58446;41.490;22.098;2024-01-30T00:11:37;46.87;;;21.80;;
70825;SDS011;58446;41.490;22.098;2024-01-30T00:14:03;33.22;;;18.05;;
70825;SDS011;58446;41.490;22.098;2024-01-30T00:16:29;30.23;;;16.38;;
70825;SDS011;58446;41.490;22.098;2024-01-30T00:18:55;32.58;;;17.38;;
70825;SDS011;58446;41.490;22.098;2024-01-30T00:21:21;25.97;;;13.37;;
70825;SDS011;58446;41.490;22.098;2024-01-30T00:23:47;28.33;;;16.10;;
70825;SDS011;58446;41.490;22.098;2024-01-30T00:26:13;28.65;;;14.75;;
70825;SDS011;58446;41.490;22.098;2024-01-30T00:28:40;22.57;;;13.10;;
70825;SDS011;58446;41.490;22.098;2024-01-30T00:31:06;29.63;;;13.98;;
70825;SDS011;58446;41.490;22.098;2024-01-30T00:33:37;30.13;;;16.33;;
70825;SDS011;58446;41.490;22.098;2024-01-30T00:36:05;28.67;;;15.35;;
70825;SDS011;58446;41.490;22.098;2024-01-30T00:38:34;51.30;;;25.38;;
70825;SDS011;58446;41.490;22.098;2024-01-30T00:41:00;38.57;;;20.00;;
70825;SDS011;58446;41.490;22.098;2024-01-30T00:43:29;44.85;;;22.38;;
70825;SDS011;58446;41.490;22.098;2024-01-30T00:45:56;70.30;;;37.40;;
70825;SDS011;58446;41.490;22.098;2024-01-30T00:48:23;67.05;;;35.05;;
70825;SDS011;58446;41.490;22.098;2024-01-30T00:50:49;56.43;;;29.93;;
70825;SDS011;58446;41.490;22.098;2024-01-30T00:53:14;55.95;;;31.05;;
70825;SDS011;58446;41.490;22.098;2024-01-30T00:55:40;68.90;;;33.47;;
70825;SDS011;58446;41.490;22.098;2024-01-30T00:58:06;62.30;;;30.57;;
70825;SDS011;58446;41.490;22.098;2024-01-30T01:00:33;57.55;;;28.98;;
70825;SDS011;58446;41.490;22.098;2024-01-30T01:02:59;53.58;;;27.45;;
70825;SDS011;58446;41.490;22.098;2024-01-30T01:05:25;48.13;;;24.38;;
70825;SDS011;58446;41.490;22.098;2024-01-30T01:07:51;52.83;;;26.53;;
70825;SDS011;58446;41.490;22.098;2024-01-30T01:10:16;56.08;;;28.05;;
70825;SDS011;58446;41.490;22.098;2024-01-30T01:12:43;67.10;;;31.80;;
70825;SDS011;58446;41.490;22.098;2024-01-30T01:15:13;68.45;;;31.45;;
70825;SDS011;58446;41.490;22.098;2024-01-30T01:17:39;64.07;;;29.50;;
70825;SDS011;58446;41.490;22.098;2024-01-30T01:20:05;60.88;;;28.98;;
70825;SDS011;58446;41.490;22.098;2024-01-30T01:22:34;57.90;;;29.08;;
70825;SDS011;58446;41.490;22.098;2024-01-30T01:25:00;64.95;;;31.30;;
70825;SDS011;58446;41.490;22.098;2024-01-30T01:27:26;59.03;;;28.20;;
70825;SDS011;58446;41.490;22.098;2024-01-30T01:29:52;50.85;;;27.10;;
70825;SDS011;58446;41.490;22.098;2024-01-30T01:32:18;47.10;;;26.05;;
70825;SDS011;58446;41.490;22.098;2024-01-30T01:34:44;41.28;;;22.27;;
70825;SDS011;58446;41.490;22.098;2024-01-30T01:37:10;36.30;;;19.37;;
70825;SDS011;58446;41.490;22.098;2024-01-30T01:39:35;32.50;;;18.73;;
70825;SDS011;58446;41.490;22.098;2024-01-30T01:42:01;35.67;;;19.20;;
70825;SDS011;58446;41.490;22.098;2024-01-30T01:44:27;33.28;;;18.90;;
70825;SDS011;58446;41.490;22.098;2024-01-30T01:46:53;34.35;;;17.88;;
70825;SDS011;58446;41.490;22.098;2024-01-30T01:49:20;29.53;;;16.90;;
70825;SDS011;58446;41.490;22.098;2024-01-30T01:51:48;38.78;;;21.83;;
70825;SDS011;58446;41.490;22.098;2024-01-30T01:54:14;34.65;;;17.92;;
70825;SDS011;58446;41.490;22.098;2024-01-30T01:56:41;31.52;;;16.48;;
70825;SDS011;58446;41.490;22.098;2024-01-30T01:59:08;33.35;;;16.85;;
70825;SDS011;58446;41.490;22.098;2024-01-30T02:01:35;29.63;;;16.57;;
70825;SDS011;58446;41.490;22.098;2024-01-30T02:04:02;28.10;;;14.82;;
70825;SDS011;58446;41.490;22.098;2024-01-30T02:06:28;28.20;;;13.77;;
70825;SDS011;58446;41.490;22.098;2024-01-30T02:08:54;26.50;;;14.07;;
70825;SDS011;58446;41.490;22.098;2024-01-30T02:11:20;21.98;;;12.30;;
70825;SDS011;58446;41.490;22.098;2024-01-30T02:13:46;21.00;;;12.35;;
70825;SDS011;58446;41.490;22.098;2024-01-30T02:16:11;22.95;;;12.88;;
70825;SDS011;58446;41.490;22.098;2024-01-30T02:18:37;21.60;;;11.87;;
70825;SDS011;58446;41.490;22.098;2024-01-30T02:21:07;21.98;;;12.90;;
70825;SDS011;58446;41.490;22.098;2024-01-30T02:23:33;21.40;;;12.43;;
70825;SDS011;58446;41.490;22.098;2024-01-30T02:25:59;23.23;;;12.30;;
70825;SDS011;58446;41.490;22.098;2024-01-30T02:28:25;18.87;;;11.87;;
70825;SDS011;58446;41.490;22.098;2024-01-30T02:30:52;17.15;;;10.75;;
70825;SDS011;58446;41.490;22.098;2024-01-30T02:33:18;21.85;;;11.55;;
70825;SDS011;58446;41.490;22.098;2024-01-30T02:35:44;17.97;;;10.67;;
70825;SDS011;58446;41.490;22.098;2024-01-30T02:38:09;17.30;;;10.48;;
70825;SDS011;58446;41.490;22.098;2024-01-30T02:40:35;15.67;;;9.33;;
70825;SDS011;58446;41.490;22.098;2024-01-30T02:43:01;16.05;;;9.50;;
70825;SDS011;58446;41.490;22.098;2024-01-30T02:45:28;14.80;;;8.98;;
70825;SDS011;58446;41.490;22.098;2024-01-30T02:47:53;12.70;;;9.17;;
70825;SDS011;58446;41.490;22.098;2024-01-30T02:50:19;14.60;;;9.60;;
70825;SDS011;58446;41.490;22.098;2024-01-30T02:52:45;13.97;;;8.77;;
70825;SDS011;58446;41.490;22.098;2024-01-30T02:55:11;13.02;;;8.32;;
70825;SDS011;58446;41.490;22.098;2024-01-30T02:57:37;14.35;;;8.55;;
70825;SDS011;58446;41.490;22.098;2024-01-30T03:00:03;13.40;;;8.80;;
70825;SDS011;58446;41.490;22.098;2024-01-30T03:02:31;17.77;;;9.45;;
70825;SDS011;58446;41.490;22.098;2024-01-30T03:04:57;15.18;;;10.00;;
70825;SDS011;58446;41.490;22.098;2024-01-30T03:07:23;15.85;;;8.60;;
70825;SDS011;58446;41.490;22.098;2024-01-30T03:09:49;11.77;;;7.90;;
70825;SDS011;58446;41.490;22.098;2024-01-30T03:12:14;16.13;;;9.00;;
70825;SDS011;58446;41.490;22.098;2024-01-30T03:14:40;15.63;;;8.60;;
70825;SDS011;58446;41.490;22.098;2024-01-30T03:17:06;16.93;;;8.77;;
70825;SDS011;58446;41.490;22.098;2024-01-30T03:19:31;15.45;;;8.68;;
70825;SDS011;58446;41.490;22.098;2024-01-30T03:21:57;11.90;;;8.20;;
70825;SDS011;58446;41.490;22.098;2024-01-30T03:24:23;13.30;;;8.43;;
70825;SDS011;58446;41.490;22.098;2024-01-30T03:26:49;16.08;;;8.88;;
70825;SDS011;58446;41.490;22.098;2024-01-30T03:29:14;17.63;;;9.43;;
70825;SDS011;58446;41.490;22.098;2024-01-30T03:31:40;11.38;;;7.53;;
70825;SDS011;58446;41.490;22.098;2024-01-30T03:34:06;12.83;;;7.77;;
70825;SDS011;58446;41.490;22.098;2024-01-30T03:36:32;13.02;;;6.85;;
70825;SDS011;58446;41.490;22.098;2024-01-30T03:38:59;14.55;;;7.70;;
70825;SDS011;58446;41.490;22.098;2024-01-30T03:41:25;11.37;;;7.87;;
70825;SDS011;58446;41.490;22.098;2024-01-30T03:43:51;11.88;;;6.88;;
70825;SDS011;58446;41.490;22.098;2024-01-30T03:46:17;10.73;;;7.45;;
70825;SDS011;58446;41.490;22.098;2024-01-30T03:48:43;12.87;;;7.63;;
70825;SDS011;58446;41.490;22.098;2024-01-30T03:51:10;11.70;;;7.32;;
70825;SDS011;58446;41.490;22.098;2024-01-30T03:53:40;14.30;;;8.60;;
70825;SDS011;58446;41.490;22.098;2024-01-30T03:56:07;12.52;;;7.15;;
70825;SDS011;58446;41.490;22.098;2024-01-30T03:58:32;14.63;;;8.43;;
70825;SDS011;58446;41.490;22.098;2024-01-30T04:00:58;15.00;;;8.23;;
70825;SDS011;58446;41.490;22.098;2024-01-30T04:03:24;15.40;;;8.60;;
70825;SDS011;58446;41.490;22.098;2024-01-30T04:05:51;24.13;;;12.80;;
70825;SDS011;58446;41.490;22.098;2024-01-30T04:08:17;15.18;;;8.27;;
70825;SDS011;58446;41.490;22.098;2024-01-30T04:10:43;17.47;;;10.80;;
70825;SDS011;58446;41.490;22.098;2024-01-30T04:13:08;21.95;;;12.88;;
70825;SDS011;58446;41.490;22.098;2024-01-30T04:15:34;23.27;;;13.33;;
70825;SDS011;58446;41.490;22.098;2024-01-30T04:21:21;19.45;;;11.68;;
70825;SDS011;58446;41.490;22.098;2024-01-30T04:23:47;25.00;;;14.05;;
70825;SDS011;58446;41.490;22.098;2024-01-30T04:26:13;21.73;;;13.20;;
70825;SDS011;58446;41.490;22.098;2024-01-30T04:28:45;21.25;;;13.20;;
70825;SDS011;58446;41.490;22.098;2024-01-30T04:31:12;19.15;;;11.43;;
70825;SDS011;58446;41.490;22.098;2024-01-30T04:33:37;15.15;;;8.93;;
70825;SDS011;58446;41.490;22.098;2024-01-30T04:36:03;19.40;;;9.70;;
70825;SDS011;58446;41.490;22.098;2024-01-30T04:38:30;14.73;;;9.18;;
70825;SDS011;58446;41.490;22.098;2024-01-30T04:40:56;14.68;;;8.98;;
70825;SDS011;58446;41.490;22.098;2024-01-30T04:43:22;13.93;;;8.60;;
70825;SDS011;58446;41.490;22.098;2024-01-30T04:45:48;16.30;;;8.23;;
70825;SDS011;58446;41.490;22.098;2024-01-30T04:48:14;17.43;;;9.27;;
70825;SDS011;58446;41.490;22.098;2024-01-30T04:50:40;14.40;;;8.30;;
70825;SDS011;58446;41.490;22.098;2024-01-30T04:53:05;13.33;;;8.63;;
70825;SDS011;58446;41.490;22.098;2024-01-30T04:55:32;15.13;;;8.18;;
70825;SDS011;58446;41.490;22.098;2024-01-30T04:57:58;13.63;;;7.90;;
70825;SDS011;58446;41.490;22.098;2024-01-30T05:00:24;15.27;;;9.13;;
70825;SDS011;58446;41.490;22.098;2024-01-30T05:02:49;16.40;;;9.70;;
70825;SDS011;58446;41.490;22.098;2024-01-30T05:05:15;18.48;;;8.75;;
70825;SDS011;58446;41.490;22.098;2024-01-30T05:07:41;17.10;;;10.27;;
70825;SDS011;58446;41.490;22.098;2024-01-30T05:10:07;17.03;;;9.67;;
70825;SDS011;58446;41.490;22.098;2024-01-30T05:12:33;15.98;;;9.18;;
70825;SDS011;58446;41.490;22.098;2024-01-30T05:14:59;16.17;;;9.35;;
70825;SDS011;58446;41.490;22.098;2024-01-30T05:17:25;17.70;;;9.57;;
70825;SDS011;58446;41.490;22.098;2024-01-30T05:19:50;15.65;;;9.23;;
70825;SDS011;58446;41.490;22.098;2024-01-30T05:22:16;16.37;;;8.77;;
70825;SDS011;58446;41.490;22.098;2024-01-30T05:24:43;14.52;;;8.57;;
70825;SDS011;58446;41.490;22.098;2024-01-30T05:27:10;15.43;;;8.85;;
70825;SDS011;58446;41.490;22.098;2024-01-30T05:29:38;13.87;;;8.53;;
70825;SDS011;58446;41.490;22.098;2024-01-30T05:32:04;12.80;;;8.63;;
70825;SDS011;58446;41.490;22.098;2024-01-30T05:34:31;15.50;;;9.18;;
70825;SDS011;58446;41.490;22.098;2024-01-30T05:36:56;16.83;;;9.27;;
70825;SDS011;58446;41.490;22.098;2024-01-30T05:39:22;16.02;;;9.57;;
70825;SDS011;58446;41.490;22.098;2024-01-30T05:41:48;15.67;;;9.37;;
70825;SDS011;58446;41.490;22.098;2024-01-30T05:44:13;14.20;;;8.38;;
70825;SDS011;58446;41.490;22.098;2024-01-30T05:46:39;12.43;;;8.50;;
70825;SDS011;58446;41.490;22.098;2024-01-30T05:49:05;12.82;;;7.93;;
70825;SDS011;58446;41.490;22.098;2024-01-30T05:51:31;14.82;;;8.30;;
70825;SDS011;58446;41.490;22.098;2024-01-30T05:53:56;13.60;;;8.60;;
70825;SDS011;58446;41.490;22.098;2024-01-30T05:56:22;15.87;;;8.17;;
70825;SDS011;58446;41.490;22.098;2024-01-30T05:58:48;15.77;;;9.47;;
70825;SDS011;58446;41.490;22.098;2024-01-30T06:01:15;12.43;;;7.28;;
70825;SDS011;58446;41.490;22.098;2024-01-30T06:03:41;14.10;;;8.30;;
70825;SDS011;58446;41.490;22.098;2024-01-30T06:06:08;13.43;;;7.97;;
70825;SDS011;58446;41.490;22.098;2024-01-30T06:08:34;14.82;;;9.02;;
70825;SDS011;58446;41.490;22.098;2024-01-30T06:11:00;18.05;;;9.57;;
70825;SDS011;58446;41.490;22.098;2024-01-30T06:13:26;17.13;;;9.80;;
70825;SDS011;58446;41.490;22.098;2024-01-30T06:15:52;15.77;;;9.70;;
70825;SDS011;58446;41.490;22.098;2024-01-30T06:18:18;19.05;;;10.70;;
70825;SDS011;58446;41.490;22.098;2024-01-30T06:20:43;23.70;;;12.53;;
70825;SDS011;58446;41.490;22.098;2024-01-30T06:23:09;23.23;;;12.88;;
70825;SDS011;58446;41.490;22.098;2024-01-30T06:25:35;23.95;;;12.98;;
70825;SDS011;58446;41.490;22.098;2024-01-30T06:28:01;14.00;;;9.13;;
70825;SDS011;58446;41.490;22.098;2024-01-30T06:30:26;21.27;;;10.77;;
70825;SDS011;58446;41.490;22.098;2024-01-30T06:32:52;25.70;;;11.70;;
70825;SDS011;58446;41.490;22.098;2024-01-30T06:35:18;23.07;;;11.93;;
70825;SDS011;58446;41.490;22.098;2024-01-30T06:37:43;19.80;;;10.90;;
70825;SDS011;58446;41.490;22.098;2024-01-30T06:40:09;20.40;;;10.20;;
70825;SDS011;58446;41.490;22.098;2024-01-30T06:42:35;18.13;;;10.77;;
70825;SDS011;58446;41.490;22.098;2024-01-30T06:45:01;19.63;;;11.48;;
70825;SDS011;58446;41.490;22.098;2024-01-30T06:47:26;16.23;;;9.93;;
70825;SDS011;58446;41.490;22.098;2024-01-30T06:49:53;15.82;;;9.82;;
70825;SDS011;58446;41.490;22.098;2024-01-30T06:52:19;16.87;;;8.90;;
70825;SDS011;58446;41.490;22.098;2024-01-30T06:54:45;16.75;;;9.18;;
70825;SDS011;58446;41.490;22.098;2024-01-30T06:57:10;13.87;;;8.20;;
70825;SDS011;58446;41.490;22.098;2024-01-30T06:59:37;15.70;;;9.40;;
70825;SDS011;58446;41.490;22.098;2024-01-30T07:02:08;15.75;;;7.95;;
70825;SDS011;58446;41.490;22.098;2024-01-30T07:04:37;11.30;;;6.53;;
70825;SDS011;58446;41.490;22.098;2024-01-30T07:07:04;12.80;;;7.70;;
70825;SDS011;58446;41.490;22.098;2024-01-30T07:09:30;11.43;;;7.95;;
70825;SDS011;58446;41.490;22.098;2024-01-30T07:11:56;13.80;;;8.38;;
70825;SDS011;58446;41.490;22.098;2024-01-30T07:14:23;12.55;;;7.55;;
70825;SDS011;58446;41.490;22.098;2024-01-30T07:16:49;13.25;;;9.07;;
70825;SDS011;58446;41.490;22.098;2024-01-30T07:19:15;13.63;;;7.47;;
70825;SDS011;58446;41.490;22.098;2024-01-30T07:21:42;30.23;;;17.92;;
70825;SDS011;58446;41.490;22.098;2024-01-30T07:24:09;49.60;;;30.90;;
70825;SDS011;58446;41.490;22.098;2024-01-30T07:26:34;33.90;;;21.60;;
70825;SDS011;58446;41.490;22.098;2024-01-30T07:29:00;59.65;;;38.05;;
70825;SDS011;58446;41.490;22.098;2024-01-30T07:31:26;47.20;;;31.15;;
70825;SDS011;58446;41.490;22.098;2024-01-30T07:33:52;58.53;;;35.83;;
70825;SDS011;58446;41.490;22.098;2024-01-30T07:36:19;67.83;;;37.33;;
70825;SDS011;58446;41.490;22.098;2024-01-30T07:38:45;46.75;;;25.45;;
70825;SDS011;58446;41.490;22.098;2024-01-30T07:41:11;78.43;;;33.67;;
70825;SDS011;58446;41.490;22.098;2024-01-30T07:43:38;146.10;;;59.23;;
70825;SDS011;58446;41.490;22.098;2024-01-30T07:46:03;68.13;;;35.67;;
70825;SDS011;58446;41.490;22.098;2024-01-30T07:48:31;30.38;;;18.05;;
70825;SDS011;58446;41.490;22.098;2024-01-30T07:50:59;48.22;;;26.20;;
70825;SDS011;58446;41.490;22.098;2024-01-30T07:53:25;29.20;;;17.63;;
70825;SDS011;58446;41.490;22.098;2024-01-30T07:55:51;59.22;;;28.88;;
70825;SDS011;58446;41.490;22.098;2024-01-30T07:58:17;49.90;;;26.23;;
70825;SDS011;58446;41.490;22.098;2024-01-30T08:00:44;38.08;;;21.45;;
70825;SDS011;58446;41.490;22.098;2024-01-30T08:03:10;44.03;;;22.80;;
70825;SDS011;58446;41.490;22.098;2024-01-30T08:05:35;24.90;;;14.73;;
70825;SDS011;58446;41.490;22.098;2024-01-30T08:08:01;21.80;;;10.73;;
70825;SDS011;58446;41.490;22.098;2024-01-30T08:10:27;23.17;;;12.82;;
70825;SDS011;58446;41.490;22.098;2024-01-30T08:12:54;20.65;;;11.00;;
70825;SDS011;58446;41.490;22.098;2024-01-30T08:15:20;21.63;;;11.60;;
70825;SDS011;58446;41.490;22.098;2024-01-30T08:17:45;18.70;;;12.00;;
70825;SDS011;58446;41.490;22.098;2024-01-30T08:20:11;19.63;;;11.63;;
70825;SDS011;58446;41.490;22.098;2024-01-30T08:22:40;18.20;;;9.97;;
70825;SDS011;58446;41.490;22.098;2024-01-30T08:25:06;22.95;;;13.48;;
70825;SDS011;58446;41.490;22.098;2024-01-30T08:27:32;17.40;;;12.23;;
70825;SDS011;58446;41.490;22.098;2024-01-30T08:30:00;17.58;;;11.40;;
70825;SDS011;58446;41.490;22.098;2024-01-30T08:32:27;19.20;;;13.02;;
70825;SDS011;58446;41.490;22.098;2024-01-30T08:34:52;16.00;;;9.10;;
70825;SDS011;58446;41.490;22.098;2024-01-30T08:37:18;12.23;;;8.98;;
70825;SDS011;58446;41.490;22.098;2024-01-30T08:39:43;11.67;;;7.80;;
70825;SDS011;58446;41.490;22.098;2024-01-30T08:42:09;17.98;;;10.98;;
70825;SDS011;58446;41.490;22.098;2024-01-30T08:44:35;11.10;;;7.17;;
70825;SDS011;58446;41.490;22.098;2024-01-30T08:47:01;15.40;;;7.82;;
70825;SDS011;58446;41.490;22.098;2024-01-30T08:49:26;10.03;;;6.27;;
70825;SDS011;58446;41.490;22.098;2024-01-30T08:51:52;10.30;;;6.03;;
70825;SDS011;58446;41.490;22.098;2024-01-30T08:54:18;10.85;;;6.72;;
70825;SDS011;58446;41.490;22.098;2024-01-30T08:56:43;9.33;;;6.03;;
70825;SDS011;58446;41.490;22.098;2024-01-30T08:59:09;15.10;;;7.37;;
70825;SDS011;58446;41.490;22.098;2024-01-30T09:01:35;8.13;;;5.53;;
70825;SDS011;58446;41.490;22.098;2024-01-30T09:04:01;9.27;;;6.53;;
70825;SDS011;58446;41.490;22.098;2024-01-30T09:06:27;10.95;;;7.63;;
70825;SDS011;58446;41.490;22.098;2024-01-30T09:08:54;9.50;;;6.43;;
70825;SDS011;58446;41.490;22.098;2024-01-30T09:11:20;11.98;;;7.32;;
70825;SDS011;58446;41.490;22.098;2024-01-30T09:13:45;13.02;;;7.10;;
70825;SDS011;58446;41.490;22.098;2024-01-30T09:16:11;9.47;;;6.57;;
70825;SDS011;58446;41.490;22.098;2024-01-30T09:18:37;9.57;;;5.88;;
70825;SDS011;58446;41.490;22.098;2024-01-30T09:21:02;8.53;;;5.60;;
70825;SDS011;58446;41.490;22.098;2024-01-30T09:23:28;9.35;;;6.68;;
70825;SDS011;58446;41.490;22.098;2024-01-30T09:25:54;10.07;;;6.40;;
70825;SDS011;58446;41.490;22.098;2024-01-30T09:28:20;9.63;;;6.68;;
70825;SDS011;58446;41.490;22.098;2024-01-30T09:30:46;9.05;;;5.40;;
70825;SDS011;58446;41.490;22.098;2024-01-30T09:33:11;11.23;;;7.97;;
70825;SDS011;58446;41.490;22.098;2024-01-30T09:35:37;14.05;;;9.07;;
70825;SDS011;58446;41.490;22.098;2024-01-30T09:38:03;10.87;;;7.00;;
70825;SDS011;58446;41.490;22.098;2024-01-30T09:40:28;10.63;;;6.25;;
70825;SDS011;58446;41.490;22.098;2024-01-30T09:42:54;12.73;;;6.40;;
70825;SDS011;58446;41.490;22.098;2024-01-30T09:45:25;12.27;;;6.70;;
70825;SDS011;58446;41.490;22.098;2024-01-30T09:47:51;13.93;;;7.50;;
70825;SDS011;58446;41.490;22.098;2024-01-30T09:50:18;13.15;;;7.03;;
70825;SDS011;58446;41.490;22.098;2024-01-30T09:52:45;12.13;;;6.63;;
70825;SDS011;58446;41.490;22.098;2024-01-30T09:55:12;11.98;;;6.85;;
70825;SDS011;58446;41.490;22.098;2024-01-30T09:57:38;10.35;;;6.03;;
70825;SDS011;58446;41.490;22.098;2024-01-30T10:00:04;24.40;;;10.52;;
70825;SDS011;58446;41.490;22.098;2024-01-30T10:02:34;29.38;;;12.80;;
70825;SDS011;58446;41.490;22.098;2024-01-30T10:05:00;16.80;;;8.37;;
70825;SDS011;58446;41.490;22.098;2024-01-30T10:07:26;16.27;;;9.30;;
70825;SDS011;58446;41.490;22.098;2024-01-30T10:09:52;20.60;;;7.95;;
70825;SDS011;58446;41.490;22.098;2024-01-30T10:12:20;23.42;;;10.05;;
70825;SDS011;58446;41.490;22.098;2024-01-30T10:14:46;12.17;;;6.33;;
70825;SDS011;58446;41.490;22.098;2024-01-30T10:17:13;20.13;;;7.78;;
70825;SDS011;58446;41.490;22.098;2024-01-30T10:19:40;14.85;;;7.00;;
70825;SDS011;58446;41.490;22.098;2024-01-30T10:22:07;37.47;;;12.27;;
70825;SDS011;58446;41.490;22.098;2024-01-30T10:24:33;38.08;;;13.25;;
70825;SDS011;58446;41.490;22.098;2024-01-30T10:26:59;40.13;;;13.43;;
70825;SDS011;58446;41.490;22.098;2024-01-30T10:29:25;28.45;;;10.75;;
70825;SDS011;58446;41.490;22.098;2024-01-30T10:31:59;25.65;;;11.45;;
70825;SDS011;58446;41.490;22.098;2024-01-30T10:34:28;29.43;;;11.33;;
70825;SDS011;58446;41.490;22.098;2024-01-30T10:36:57;39.53;;;15.00;;
70825;SDS011;58446;41.490;22.098;2024-01-30T10:39:32;21.42;;;9.05;;
70825;SDS011;58446;41.490;22.098;2024-01-30T10:42:03;17.95;;;6.93;;
70825;SDS011;58446;41.490;22.098;2024-01-30T10:44:33;13.45;;;6.68;;
70825;SDS011;58446;41.490;22.098;2024-01-30T10:47:06;12.03;;;7.03;;
70825;SDS011;58446;41.490;22.098;2024-01-30T10:49:35;11.63;;;6.15;;
70825;SDS011;58446;41.490;22.098;2024-01-30T10:52:02;12.02;;;6.72;;
70825;SDS011;58446;41.490;22.098;2024-01-30T10:54:30;11.35;;;6.93;;
70825;SDS011;58446;41.490;22.098;2024-01-30T10:56:57;12.27;;;6.60;;
70825;SDS011;58446;41.490;22.098;2024-01-30T10:59:28;8.53;;;5.43;;
70825;SDS011;58446;41.490;22.098;2024-01-30T11:01:56;8.32;;;5.00;;
70825;SDS011;58446;41.490;22.098;2024-01-30T11:04:24;10.90;;;6.13;;
70825;SDS011;58446;41.490;22.098;2024-01-30T11:06:50;19.95;;;9.75;;
70825;SDS011;58446;41.490;22.098;2024-01-30T11:09:17;12.23;;;6.50;;
70825;SDS011;58446;41.490;22.098;2024-01-30T11:11:56;9.93;;;5.75;;
70825;SDS011;58446;41.490;22.098;2024-01-30T11:14:26;11.90;;;6.78;;
70825;SDS011;58446;41.490;22.098;2024-01-30T11:16:56;10.27;;;6.68;;
70825;SDS011;58446;41.490;22.098;2024-01-30T11:19:23;7.72;;;4.75;;
70825;SDS011;58446;41.490;22.098;2024-01-30T11:21:51;10.70;;;7.00;;
70825;SDS011;58446;41.490;22.098;2024-01-30T11:24:22;9.35;;;5.75;;
70825;SDS011;58446;41.490;22.098;2024-01-30T11:26:58;9.25;;;5.53;;
70825;SDS011;58446;41.490;22.098;2024-01-30T11:29:27;7.65;;;4.68;;
70825;SDS011;58446;41.490;22.098;2024-01-30T11:31:56;8.50;;;4.95;;
70825;SDS011;58446;41.490;22.098;2024-01-30T11:34:23;9.23;;;5.27;;
70825;SDS011;58446;41.490;22.098;2024-01-30T11:36:53;7.80;;;5.05;;
70825;SDS011;58446;41.490;22.098;2024-01-30T11:39:26;6.60;;;4.55;;
70825;SDS011;58446;41.490;22.098;2024-01-30T11:41:54;14.30;;;6.65;;
70825;SDS011;58446;41.490;22.098;2024-01-30T11:44:20;8.07;;;5.07;;
70825;SDS011;58446;41.490;22.098;2024-01-30T11:46:49;5.87;;;4.00;;
70825;SDS011;58446;41.490;22.098;2024-01-30T11:49:16;7.28;;;4.38;;
70825;SDS011;58446;41.490;22.098;2024-01-30T11:51:45;8.60;;;4.90;;
70825;SDS011;58446;41.490;22.098;2024-01-30T11:54:13;7.60;;;4.30;;
70825;SDS011;58446;41.490;22.098;2024-01-30T11:56:40;7.22;;;4.32;;
70825;SDS011;58446;41.490;22.098;2024-01-30T11:59:05;7.50;;;5.00;;
70825;SDS011;58446;41.490;22.098;2024-01-30T12:01:31;7.43;;;4.03;;
70825;SDS011;58446;41.490;22.098;2024-01-30T12:04:00;6.65;;;3.78;;
70825;SDS011;58446;41.490;22.098;2024-01-30T12:06:26;7.15;;;4.55;;
70825;SDS011;58446;41.490;22.098;2024-01-30T12:08:58;6.20;;;3.65;;
70825;SDS011;58446;41.490;22.098;2024-01-30T12:11:25;8.60;;;4.25;;
70825;SDS011;58446;41.490;22.098;2024-01-30T12:13:51;8.60;;;5.60;;
70825;SDS011;58446;41.490;22.098;2024-01-30T12:16:18;8.38;;;3.80;;
70825;SDS011;58446;41.490;22.098;2024-01-30T12:18:44;10.15;;;4.75;;
70825;SDS011;58446;41.490;22.098;2024-01-30T12:21:10;9.25;;;4.97;;
70825;SDS011;58446;41.490;22.098;2024-01-30T12:23:36;7.93;;;4.47;;
70825;SDS011;58446;41.490;22.098;2024-01-30T12:26:02;9.23;;;4.35;;
70825;SDS011;58446;41.490;22.098;2024-01-30T12:28:32;8.70;;;4.90;;
70825;SDS011;58446;41.490;22.098;2024-01-30T12:31:02;6.63;;;3.90;;
70825;SDS011;58446;41.490;22.098;2024-01-30T12:33:29;9.15;;;5.53;;
70825;SDS011;58446;41.490;22.098;2024-01-30T12:36:01;8.87;;;5.47;;
70825;SDS011;58446;41.490;22.098;2024-01-30T12:38:27;7.43;;;4.60;;
70825;SDS011;58446;41.490;22.098;2024-01-30T12:40:56;10.85;;;4.72;;
70825;SDS011;58446;41.490;22.098;2024-01-30T12:43:26;7.03;;;4.17;;
70825;SDS011;58446;41.490;22.098;2024-01-30T12:45:53;8.55;;;5.00;;
70825;SDS011;58446;41.490;22.098;2024-01-30T12:48:19;9.10;;;5.25;;
70825;SDS011;58446;41.490;22.098;2024-01-30T12:50:45;10.13;;;6.75;;
70825;SDS011;58446;41.490;22.098;2024-01-30T12:53:11;12.83;;;5.60;;
70825;SDS011;58446;41.490;22.098;2024-01-30T12:55:40;16.58;;;9.20;;
70825;SDS011;58446;41.490;22.098;2024-01-30T12:58:11;12.68;;;6.28;;
70825;SDS011;58446;41.490;22.098;2024-01-30T13:00:37;13.80;;;7.87;;
70825;SDS011;58446;41.490;22.098;2024-01-30T13:03:03;13.10;;;5.15;;
70825;SDS011;58446;41.490;22.098;2024-01-30T13:05:29;16.90;;;6.30;;
70825;SDS011;58446;41.490;22.098;2024-01-30T13:07:54;11.32;;;4.43;;
70825;SDS011;58446;41.490;22.098;2024-01-30T13:10:22;8.07;;;3.80;;
70825;SDS011;58446;41.490;22.098;2024-01-30T13:12:48;22.27;;;12.83;;
70825;SDS011;58446;41.490;22.098;2024-01-30T13:15:14;13.07;;;6.63;;
70825;SDS011;58446;41.490;22.098;2024-01-30T13:17:40;13.63;;;7.05;;
70825;SDS011;58446;41.490;22.098;2024-01-30T13:20:07;11.65;;;6.70;;
70825;SDS011;58446;41.490;22.098;2024-01-30T13:22:33;20.27;;;10.20;;
70825;SDS011;58446;41.490;22.098;2024-01-30T13:24:59;15.45;;;8.70;;
70825;SDS011;58446;41.490;22.098;2024-01-30T13:27:26;10.70;;;6.47;;
70825;SDS011;58446;41.490;22.098;2024-01-30T13:29:52;13.70;;;7.43;;
70825;SDS011;58446;41.490;22.098;2024-01-30T13:32:18;13.23;;;8.73;;
70825;SDS011;58446;41.490;22.098;2024-01-30T13:34:43;11.43;;;6.20;;
70825;SDS011;58446;41.490;22.098;2024-01-30T13:37:09;15.67;;;8.63;;
70825;SDS011;58446;41.490;22.098;2024-01-30T13:39:39;14.27;;;7.75;;
70825;SDS011;58446;41.490;22.098;2024-01-30T13:42:06;34.85;;;16.27;;
70825;SDS011;58446;41.490;22.098;2024-01-30T13:44:31;17.60;;;10.57;;
70825;SDS011;58446;41.490;22.098;2024-01-30T13:47:03;19.88;;;10.43;;
70825;SDS011;58446;41.490;22.098;2024-01-30T13:49:32;15.83;;;8.27;;
70825;SDS011;58446;41.490;22.098;2024-01-30T13:51:58;10.80;;;5.53;;
70825;SDS011;58446;41.490;22.098;2024-01-30T13:54:27;14.25;;;8.25;;
70825;SDS011;58446;41.490;22.098;2024-01-30T13:56:53;22.02;;;11.43;;
70825;SDS011;58446;41.490;22.098;2024-01-30T13:59:19;11.23;;;7.20;;
70825;SDS011;58446;41.490;22.098;2024-01-30T14:01:49;8.98;;;5.72;;
70825;SDS011;58446;41.490;22.098;2024-01-30T14:04:15;10.45;;;4.70;;
70825;SDS011;58446;41.490;22.098;2024-01-30T14:06:40;9.80;;;5.13;;
70825;SDS011;58446;41.490;22.098;2024-01-30T14:09:06;7.43;;;4.20;;
70825;SDS011;58446;41.490;22.098;2024-01-30T14:11:32;8.45;;;5.03;;
70825;SDS011;58446;41.490;22.098;2024-01-30T14:13:58;6.82;;;4.15;;
70825;SDS011;58446;41.490;22.098;2024-01-30T14:16:24;7.17;;;4.90;;
70825;SDS011;58446;41.490;22.098;2024-01-30T14:18:50;6.47;;;3.58;;